sensor_id;sensor_type;location;lat;lon;timestamp;pressure;altitude;pressure_sealevel;temperature;humidity
61740;BME280;47645;45.288;12.038;2023-02-28T00:01:03;1021.6844560751653;;;3.7150390625;67.3243656758546
61740;BME280;47645;45.288;12.038;2023-02-28T00:11:06;1021.634870754439;;;3.69453125;67.78326005991784
61740;BME280;47645;45.288;12.038;2023-02-28T00:21:04;1021.6611820054939;;;3.6283203125;68.76421077416326
61740;BME280;47645;45.288;12.038;2023-02-28T00:31:05;1021.7064088811223;;;3.648828125;69.23207639116634
61740;BME280;47645;45.288;12.038;2023-02-28T00:41:05;1021.7592909161234;;;3.77109375;68.91141075181622
61740;BME280;47645;45.288;12.038;2023-02-28T00:51:05;1021.7555558399083;;;3.9392578125;68.97916086934634
61740;BME280;47645;45.288;12.038;2023-02-28T01:01:06;1021.7722460615149;;;3.9494140625;68.9850213383561
61740;BME280;47645;45.288;12.038;2023-02-28T01:11:10;1021.8801678162515;;;4.02578125;68.45966092970964
61740;BME280;47645;45.288;12.038;2023-02-28T01:21:07;1021.941824042235;;;4.0412109375;68.12629368044195
61740;BME280;47645;45.288;12.038;2023-02-28T01:31:06;1021.8482127737294;;;4.087109375;67.81113431057095
61740;BME280;47645;45.288;12.038;2023-02-28T01:41:07;1021.7816480950885;;;4.1482421875;68.06237596221959
61740;BME280;47645;45.288;12.038;2023-02-28T01:51:11;1021.8140994857135;;;4.02578125;68.2227672244837
61740;BME280;47645;45.288;12.038;2023-02-28T02:01:07;1021.8922715047622;;;3.975;68.52208010748836
61740;BME280;47645;45.288;12.038;2023-02-28T02:11:10;1021.8619582548819;;;3.990234375;67.51901810514107
61740;BME280;47645;45.288;12.038;2023-02-28T02:21:51;1021.820455868587;;;3.9646484375;67.97342327073935
61740;BME280;47645;45.288;12.038;2023-02-28T02:32:27;1021.8196385218563;;;4.0310546875;67.74788440863017
61740;BME280;47645;45.288;12.038;2023-02-28T02:41:14;1021.8898379808443;;;4.00546875;67.60785218375011
61740;BME280;47645;45.288;12.038;2023-02-28T02:51:15;1021.9443628302828;;;4.00546875;67.6678142615934
61740;BME280;47645;45.288;12.038;2023-02-28T03:01:14;1021.8928315016251;;;4.0767578125;67.52518288008626
61740;BME280;47645;45.288;12.038;2023-02-28T03:11:14;1021.9070204506112;;;3.975;67.30916214935328
61740;BME280;47645;45.288;12.038;2023-02-28T03:21:16;1021.8363070967479;;;4.1125;67.17149578639834
61740;BME280;47645;45.288;12.038;2023-02-28T03:31:14;1021.9170117781138;;;3.88828125;67.13305433948184
61740;BME280;47645;45.288;12.038;2023-02-28T03:41:13;1021.9686944037662;;;3.9291015625;67.51464665935663
61740;BME280;47645;45.288;12.038;2023-02-28T03:51:13;1021.9416142850456;;;4.015625;66.85749424684234
61740;BME280;47645;45.288;12.038;2023-02-28T04:01:14;1021.8447688540853;;;3.9646484375;67.06271923212036
61740;BME280;47645;45.288;12.038;2023-02-28T04:11:19;1021.8938148980384;;;3.806640625;66.28395659082575
61740;BME280;47645;45.288;12.038;2023-02-28T04:21:11;1021.8756904612143;;;3.582421875;67.40261820806849
61740;BME280;47645;45.288;12.038;2023-02-28T04:31:11;1021.8474826137084;;;3.55703125;67.89861117178161
61740;BME280;47645;45.288;12.038;2023-02-28T04:41:12;1021.8781137132595;;;3.3736328125;69.04083588692104
61740;BME280;47645;45.288;12.038;2023-02-28T04:51:14;1021.9193935759318;;;3.3990234375;70.45516684768214
61740;BME280;47645;45.288;12.038;2023-02-28T05:01:19;1021.908281839392;;;3.475390625;69.13609630998828
61740;BME280;47645;45.288;12.038;2023-02-28T05:11:16;1022.0820202146969;;;3.24609375;69.7589723987845
61740;BME280;47645;45.288;12.038;2023-02-28T05:21:24;1022.1096081100404;;;3.3990234375;69.68824619057088
61740;BME280;47645;45.288;12.038;2023-02-28T05:31:13;1022.1115582572855;;;3.424609375;69.34144049707736
61740;BME280;47645;45.288;12.038;2023-02-28T05:41:14;1022.0887024701666;;;3.4142578125;69.22416543742344
61740;BME280;47645;45.288;12.038;2023-02-28T05:51:14;1022.3620010937692;;;3.220703125;68.64591237031117
61740;BME280;47645;45.288;12.038;2023-02-28T06:01:24;1022.3132857132474;;;3.2919921875;71.77582645508052
61740;BME280;47645;45.288;12.038;2023-02-28T06:11:14;1022.3706844888488;;;3.006640625;68.60850441368247
61740;BME280;47645;45.288;12.038;2023-02-28T06:21:15;1022.4402596418294;;;2.782421875;68.72378073963687
61740;BME280;47645;45.288;12.038;2023-02-28T06:31:16;1022.4709069268631;;;2.6703125;68.98865279595134
61740;BME280;47645;45.288;12.038;2023-02-28T06:41:15;1022.5087580943052;;;2.79765625;68.75696123749312
61740;BME280;47645;45.288;12.038;2023-02-28T06:51:17;1022.5345919228396;;;2.87421875;68.14550677194481
61740;BME280;47645;45.288;12.038;2023-02-28T07:01:16;1022.6381877529535;;;3.0728515625;67.82631103887789
61740;BME280;47645;45.288;12.038;2023-02-28T07:11:16;1022.7480150777972;;;3.1798828125;67.07318864002382
61740;BME280;47645;45.288;12.038;2023-02-28T07:21:16;1022.6871029488249;;;3.475390625;66.93923539127817
61740;BME280;47645;45.288;12.038;2023-02-28T07:31:17;1022.7284400417635;;;3.796484375;66.40833810472544
61740;BME280;47645;45.288;12.038;2023-02-28T07:41:18;1022.6607411051958;;;4.0716796875;65.85176299625233
61740;BME280;47645;45.288;12.038;2023-02-28T07:51:17;1022.5831668205412;;;4.5609375;65.73631301726616
61740;BME280;47645;45.288;12.038;2023-02-28T08:01:19;1022.6655616259351;;;4.8107421875;65.26297957543603
61740;BME280;47645;45.288;12.038;2023-02-28T08:11:18;1022.6592511850123;;;5.111328125;64.29246368224277
61740;BME280;47645;45.288;12.038;2023-02-28T08:21:19;1022.6752507169325;;;5.203125;63.268041681304766
61740;BME280;47645;45.288;12.038;2023-02-28T08:31:18;1022.6851155222829;;;5.3611328125;63.273352937373616
61740;BME280;47645;45.288;12.038;2023-02-28T08:41:18;1022.7895102191692;;;5.63125;62.27499700197323
61740;BME280;47645;45.288;12.038;2023-02-28T08:51:22;1022.7193945424306;;;5.422265625;61.352496634613324
61740;BME280;47645;45.288;12.038;2023-02-28T09:01:21;1022.7810836928785;;;5.3458984375;62.10438510386528
61740;BME280;47645;45.288;12.038;2023-02-28T09:11:19;1022.867534809893;;;5.626171875;61.90465896402449
61740;BME280;47645;45.288;12.038;2023-02-28T09:21:20;1022.8954568139928;;;5.97265625;62.06828223511198
61740;BME280;47645;45.288;12.038;2023-02-28T09:31:23;1022.9214149558516;;;6.1;62.07560210584486
61740;BME280;47645;45.288;12.038;2023-02-28T09:41:23;1022.9568425904548;;;6.288671875;60.05901196021907
61740;BME280;47645;45.288;12.038;2023-02-28T09:51:33;1023.0723324135012;;;6.716796875;60.18634564832135
61740;BME280;47645;45.288;12.038;2023-02-28T10:01:25;1023.0780114514314;;;6.7677734375;59.03923457221769
61740;BME280;47645;45.288;12.038;2023-02-28T10:11:23;1023.195341376761;;;7.48125;57.7328928792137
61740;BME280;47645;45.288;12.038;2023-02-28T10:21:27;1023.0181677096735;;;7.8533203125;56.161867988418415
61740;BME280;47645;45.288;12.038;2023-02-28T10:31:22;1023.0154486969666;;;8.05703125;56.393452843180086
61740;BME280;47645;45.288;12.038;2023-02-28T10:41:28;1022.9413938236904;;;8.332421875;57.56061422976496
61740;BME280;47645;45.288;12.038;2023-02-28T10:51:23;1022.7725650880466;;;8.378125;54.961254409903475
61740;BME280;47645;45.288;12.038;2023-02-28T11:01:35;1022.7790894607623;;;8.4037109375;54.28328816590472
61740;BME280;47645;45.288;12.038;2023-02-28T11:11:26;1022.550048057875;;;9.239453125;55.48593010654728
61740;BME280;47645;45.288;12.038;2023-02-28T11:21:27;1022.3520435565997;;;10.055078125;55.08285781263249
61740;BME280;47645;45.288;12.038;2023-02-28T11:31:27;1022.2272124760435;;;9.998828125;54.254809052412355
61740;BME280;47645;45.288;12.038;2023-02-28T11:41:38;1022.0764948051446;;;10.2638671875;53.85124929463623
61740;BME280;47645;45.288;12.038;2023-02-28T11:51:30;1022.1366730213257;;;9.744140625;53.45279616080873
61740;BME280;47645;45.288;12.038;2023-02-28T12:01:36;1022.0493557264073;;;10.3046875;52.86926563925593
61740;BME280;47645;45.288;12.038;2023-02-28T12:11:38;1021.9766128814916;;;10.85;52.338906209418035
61740;BME280;47645;45.288;12.038;2023-02-28T12:21:37;1021.8904127501886;;;11.0181640625;53.91807339368813
61740;BME280;47645;45.288;12.038;2023-02-28T12:31:31;1021.7340816975436;;;11.34453125;55.111140278628646
61740;BME280;47645;45.288;12.038;2023-02-28T12:41:34;1021.6144235636468;;;11.8642578125;54.301394523811254
61740;BME280;47645;45.288;12.038;2023-02-28T12:51:30;1021.5666522932498;;;11.8541015625;50.49178690034698
61740;BME280;47645;45.288;12.038;2023-02-28T13:11:34;1021.2909068158978;;;12.2720703125;49.01935279875353
61740;BME280;47645;45.288;12.038;2023-02-28T13:21:41;1021.1344400797088;;;12.751171875;52.15268527430092
61740;BME280;47645;45.288;12.038;2023-02-28T13:41:45;1020.942099694175;;;12.95;49.60993111791993
61740;BME280;47645;45.288;12.038;2023-02-28T13:51:40;1020.965428980108;;;11.252734375;49.32503335845568
61740;BME280;47645;45.288;12.038;2023-02-28T14:01:44;1020.875119138785;;;12.0580078125;51.32827550086151
61740;BME280;47645;45.288;12.038;2023-02-28T14:11:38;1020.9149953841272;;;11.9814453125;51.31492682844395
61740;BME280;47645;45.288;12.038;2023-02-28T14:21:40;1020.7625377800027;;;11.680859375;53.711879489169775
61740;BME280;47645;45.288;12.038;2023-02-28T14:31:40;1020.660383175545;;;12.20078125;54.555344615146105
61740;BME280;47645;45.288;12.038;2023-02-28T14:41:40;1020.7442994803174;;;11.3087890625;52.505419992269694
61740;BME280;47645;45.288;12.038;2023-02-28T14:51:39;1020.6766811659621;;;11.5330078125;57.87923477028267
61740;BME280;47645;45.288;12.038;2023-02-28T15:01:39;1020.6620469930641;;;11.5380859375;57.548976511011126
61740;BME280;47645;45.288;12.038;2023-02-28T15:11:40;1020.6125532242773;;;11.5279296875;58.869576179259816
61740;BME280;47645;45.288;12.038;2023-02-28T15:21:44;1020.595217618646;;;11.283203125;58.71771797316463
61740;BME280;47645;45.288;12.038;2023-02-28T15:31:45;1020.5475324775044;;;10.951953125;57.142404262846995
61740;BME280;47645;45.288;12.038;2023-02-28T15:41:41;1020.5378409480754;;;9.8154296875;60.05259806632893
61740;BME280;47645;45.288;12.038;2023-02-28T15:51:42;1020.3967106046318;;;8.918359375;64.31366143543922
61740;BME280;47645;45.288;12.038;2023-02-28T16:01:42;1020.4186494454968;;;9.091796875;67.08889660182368
61740;BME280;47645;45.288;12.038;2023-02-28T16:11:45;1020.4421389643245;;;9.01015625;65.89627299541448
61740;BME280;47645;45.288;12.038;2023-02-28T16:21:44;1020.5638520874162;;;8.245703125;67.78540623670774
61740;BME280;47645;45.288;12.038;2023-02-28T16:31:44;1020.5351215004525;;;8.69921875;70.10550513939658
61740;BME280;47645;45.288;12.038;2023-02-28T16:41:45;1020.4475078163855;;;8.0724609375;71.73501311146903
61740;BME280;47645;45.288;12.038;2023-02-28T16:51:45;1020.4282070814098;;;7.817578125;72.95266045139729
61740;BME280;47645;45.288;12.038;2023-02-28T17:01:45;1020.4248651236175;;;7.7462890625;71.95797578650834
61740;BME280;47645;45.288;12.038;2023-02-28T17:11:47;1020.4589419591397;;;7.623828125;73.29702373809526
61740;BME280;47645;45.288;12.038;2023-02-28T17:21:46;1020.5792184593919;;;7.2060546875;74.21030535950088
61740;BME280;47645;45.288;12.038;2023-02-28T17:31:47;1020.5449820780009;;;6.95625;75.01944751878202
61740;BME280;47645;45.288;12.038;2023-02-28T17:41:47;1020.6987399627533;;;6.716796875;71.61186003996508
61740;BME280;47645;45.288;12.038;2023-02-28T17:51:48;1020.7752065942553;;;6.7728515625;72.9557643531317
61740;BME280;47645;45.288;12.038;2023-02-28T18:01:48;1020.9247896310097;;;6.61484375;72.02180407920972
61740;BME280;47645;45.288;12.038;2023-02-28T18:11:49;1020.9234422231119;;;6.5689453125;71.85792692716745
61740;BME280;47645;45.288;12.038;2023-02-28T18:21:52;1021.0038800835515;;;6.40078125;69.05191738466544
61740;BME280;47645;45.288;12.038;2023-02-28T18:31:50;1021.0792073974993;;;6.3244140625;67.93237257527053
61740;BME280;47645;45.288;12.038;2023-02-28T18:41:50;1021.0976373056543;;;6.395703125;69.37051085697894
61740;BME280;47645;45.288;12.038;2023-02-28T18:51:50;1021.0912971580353;;;6.2427734375;69.08514099678902
61740;BME280;47645;45.288;12.038;2023-02-28T19:01:51;1021.0984552234254;;;6.1306640625;69.68209858421963
61740;BME280;47645;45.288;12.038;2023-02-28T19:11:51;1021.0976169120291;;;6.0388671875;70.18732440479079
61740;BME280;47645;45.288;12.038;2023-02-28T19:21:54;1020.8681347746808;;;5.7892578125;71.93978256804456
61740;BME280;47645;45.288;12.038;2023-02-28T19:31:53;1020.8867305555004;;;5.508984375;72.63674963413803
61740;BME280;47645;45.288;12.038;2023-02-28T19:41:53;1020.8701312903685;;;5.50390625;72.94533209514795
61740;BME280;47645;45.288;12.038;2023-02-28T19:51:52;1020.8470304396691;;;5.40703125;72.92546239373789
61740;BME280;47645;45.288;12.038;2023-02-28T20:01:55;1020.8623372008279;;;5.19296875;72.28674774241678
61740;BME280;47645;45.288;12.038;2023-02-28T20:11:54;1020.964805871391;;;5.0654296875;72.96802724305665
61740;BME280;47645;45.288;12.038;2023-02-28T20:21:53;1021.0963457550763;;;4.9279296875;72.84724450157603
61740;BME280;47645;45.288;12.038;2023-02-28T20:31:54;1021.0782486503889;;;4.78515625;72.6210063191971
61740;BME280;47645;45.288;12.038;2023-02-28T20:41:54;1020.9762907379184;;;4.780078125;71.84189815761849
61740;BME280;47645;45.288;12.038;2023-02-28T20:51:54;1020.9338527935867;;;4.8158203125;72.23439658124843
61740;BME280;47645;45.288;12.038;2023-02-28T21:01:55;1020.997164847102;;;4.6119140625;70.10472813514303
61740;BME280;47645;45.288;12.038;2023-02-28T21:11:55;1021.0339760169637;;;4.44375;68.89606337335252
61740;BME280;47645;45.288;12.038;2023-02-28T21:21:55;1020.9572557690617;;;4.331640625;70.0506381695252
61740;BME280;47645;45.288;12.038;2023-02-28T21:31:55;1021.038133099417;;;4.0462890625;70.82488369164628
61740;BME280;47645;45.288;12.038;2023-02-28T21:42:04;1020.7733607036055;;;4.015625;73.16177357712203
61740;BME280;47645;45.288;12.038;2023-02-28T21:51:58;1020.7345361812093;;;4.3265625;70.48896648290915
61740;BME280;47645;45.288;12.038;2023-02-28T22:01:58;1020.719272787718;;;4.5048828125;69.59131192099379
61740;BME280;47645;45.288;12.038;2023-02-28T22:11:59;1020.7419444867638;;;4.5916015625;70.55351502159355
61740;BME280;47645;45.288;12.038;2023-02-28T22:22:00;1020.5841489491146;;;4.642578125;70.0757175466251
61740;BME280;47645;45.288;12.038;2023-02-28T22:32:00;1020.563447747202;;;4.545703125;69.38037522159307
61740;BME280;47645;45.288;12.038;2023-02-28T22:42:00;1020.6216887812142;;;4.535546875;69.45720818485972
61740;BME280;47645;45.288;12.038;2023-02-28T22:52:00;1020.5289468733248;;;4.331640625;69.07465004891289
61740;BME280;47645;45.288;12.038;2023-02-28T23:01:58;1020.659483309752;;;3.9544921875;68.71793795097008
61740;BME280;47645;45.288;12.038;2023-02-28T23:11:59;1020.577813085521;;;3.873046875;68.68373318606763
61740;BME280;47645;45.288;12.038;2023-02-28T23:22:00;1020.5342102922438;;;3.551953125;69.7492235986278
61740;BME280;47645;45.288;12.038;2023-02-28T23:32:00;1020.5548407661618;;;3.424609375;70.00880561376476
61740;BME280;47645;45.288;12.038;2023-02-28T23:42:01;1020.6611448076235;;;3.2666015625;70.54322186588028
61740;BME280;47645;45.288;12.038;2023-02-28T23:52:00;1020.4406160588264;;;3.144140625;72.28218790623896
